Time;durP1;ratioP1;P1;durP2;ratioP2;P2;SDS_P1;SDS_P2;PMS_P1;PMS_P2;Temp;Humidity;BMP_temperature;BMP_pressure;BME280_temperature;BME280_humidity;BME280_pressure;Samples;Min_cycle;Max_cycle;Signal;HPM_P1;HPM_P2
2021/07/29 00:00:02;;;;;;;4.40;3.10;;;18.10;99.90;;;;;;5070928;28;20200;-61
2021/07/29 00:02:28;;;;;;;3.80;2.90;;;18.20;99.90;;;;;;5071835;28;20205;-62
2021/07/29 00:04:55;;;;;;;3.20;2.90;;;18.10;99.90;;;;;;5072024;28;20204;-62
2021/07/29 00:07:22;;;;;;;7.65;3.00;;;18.10;99.90;;;;;;5071808;28;20225;-61
2021/07/29 00:09:49;;;;;;;3.15;2.80;;;18.00;99.90;;;;;;5071418;28;20328;-62
2021/07/29 00:12:15;;;;;;;4.07;3.00;;;18.00;99.90;;;;;;5071667;28;20208;-62
2021/07/29 00:14:47;;;;;;;2.85;2.65;;;17.90;99.90;;;;;;5071295;28;20215;-61
2021/07/29 00:17:28;;;;;;;3.25;2.83;;;17.90;99.90;;;;;;5071577;28;20399;-62
2021/07/29 00:19:53;;;;;;;3.20;2.90;;;17.90;99.90;;;;;;5071556;28;20204;-61
2021/07/29 00:22:20;;;;;;;4.07;2.78;;;18.00;99.90;;;;;;5071585;28;20196;-59
2021/07/29 00:24:47;;;;;;;3.28;2.97;;;17.90;99.90;;;;;;5071425;28;20205;-62
2021/07/29 00:27:13;;;;;;;3.90;2.90;;;17.80;99.90;;;;;;5071501;28;20228;-62
2021/07/29 00:29:40;;;;;;;3.58;2.85;;;17.90;99.90;;;;;;5071359;28;20207;-62
2021/07/29 00:32:07;;;;;;;4.45;3.13;;;17.90;99.90;;;;;;5071358;28;20205;-62
2021/07/29 00:34:36;;;;;;;3.92;3.30;;;17.80;99.90;;;;;;5071282;28;20231;-62
2021/07/29 00:37:02;;;;;;;6.05;2.75;;;17.90;99.90;;;;;;5071669;28;20236;-62
2021/07/29 00:39:29;;;;;;;3.92;2.67;;;17.80;99.90;;;;;;5071454;28;20205;-61
2021/07/29 00:41:56;;;;;;;3.15;2.85;;;17.80;99.90;;;;;;5071466;28;20207;-61
2021/07/29 00:44:22;;;;;;;4.05;2.80;;;17.80;99.90;;;;;;5071172;28;20204;-62
2021/07/29 00:46:49;;;;;;;2.90;2.55;;;17.80;99.90;;;;;;5071178;28;20235;-62
2021/07/29 00:49:16;;;;;;;5.18;2.55;;;17.80;99.90;;;;;;5071129;28;20270;-61
2021/07/29 00:51:44;;;;;;;4.25;3.10;;;17.80;99.90;;;;;;5071024;28;20221;-61
2021/07/29 00:54:11;;;;;;;4.18;2.88;;;17.80;99.90;;;;;;5070981;28;20204;-62
2021/07/29 00:56:37;;;;;;;3.95;2.50;;;17.60;99.90;;;;;;5070907;28;20862;-61
2021/07/29 00:59:04;;;;;;;3.78;2.70;;;17.60;99.90;;;;;;5071175;28;20204;-61
2021/07/29 01:01:31;;;;;;;4.70;2.85;;;17.60;99.90;;;;;;5070978;28;20224;-61
2021/07/29 01:03:57;;;;;;;4.03;2.65;;;17.60;99.90;;;;;;5071000;28;20619;-61
2021/07/29 01:06:24;;;;;;;3.88;3.00;;;17.60;99.90;;;;;;5070785;28;20665;-61
2021/07/29 01:09:08;;;;;;;3.47;2.78;;;17.60;99.90;;;;;;5070676;28;20602;-62
2021/07/29 01:11:35;;;;;;;4.68;2.97;;;17.50;99.90;;;;;;5070983;28;20228;-61
2021/07/29 01:14:01;;;;;;;3.97;2.90;;;17.50;99.90;;;;;;5070647;28;20213;-62
2021/07/29 01:16:28;;;;;;;3.30;2.53;;;17.40;99.90;;;;;;5070988;28;20597;-61
2021/07/29 01:18:56;;;;;;;4.15;2.90;;;17.40;99.90;;;;;;5070667;28;20688;-61
2021/07/29 01:21:26;;;;;;;3.95;2.72;;;17.40;99.90;;;;;;5070619;28;20604;-61
2021/07/29 01:23:53;;;;;;;3.03;2.60;;;17.40;99.90;;;;;;5070643;28;20292;-61
2021/07/29 01:26:20;;;;;;;3.23;2.93;;;17.40;99.90;;;;;;5070611;28;20709;-62
2021/07/29 01:28:46;;;;;;;3.30;2.78;;;17.40;99.90;;;;;;5070553;28;20209;-62
2021/07/29 01:31:13;;;;;;;3.00;2.55;;;17.30;99.90;;;;;;5070791;28;20228;-61
2021/07/29 01:33:41;;;;;;;5.68;3.45;;;17.30;99.90;;;;;;5070403;28;20205;-61
2021/07/29 01:36:08;;;;;;;3.50;2.78;;;17.20;99.90;;;;;;5070511;28;20263;-61
2021/07/29 01:38:36;;;;;;;3.90;3.13;;;17.20;99.90;;;;;;5070466;28;20207;-61
2021/07/29 01:41:04;;;;;;;5.88;3.22;;;17.10;99.90;;;;;;5070508;28;20201;-61
2021/07/29 01:43:31;;;;;;;3.63;3.28;;;17.10;99.90;;;;;;5070477;28;20693;-62
2021/07/29 01:45:58;;;;;;;5.80;3.45;;;17.10;99.90;;;;;;5070687;28;20728;-61
2021/07/29 01:48:25;;;;;;;4.15;3.17;;;17.10;99.90;;;;;;5070337;28;20299;-62
2021/07/29 01:50:52;;;;;;;3.88;3.20;;;17.00;99.90;;;;;;5070627;28;20225;-61
2021/07/29 01:53:19;;;;;;;4.57;3.35;;;17.00;99.90;;;;;;5071139;28;20239;-62
2021/07/29 01:55:48;;;;;;;3.40;3.10;;;17.00;99.90;;;;;;5070563;28;20747;-62
2021/07/29 01:58:16;;;;;;;5.28;3.50;;;17.00;99.90;;;;;;5070860;28;20715;-61
2021/07/29 02:00:44;;;;;;;3.97;3.58;;;17.00;99.90;;;;;;5070554;28;20347;-62
2021/07/29 02:03:11;;;;;;;3.65;3.17;;;16.90;99.90;;;;;;5070384;28;20627;-61
2021/07/29 02:05:38;;;;;;;5.35;3.25;;;16.90;99.90;;;;;;5070277;28;20221;-59
2021/07/29 02:08:06;;;;;;;6.53;3.07;;;16.90;99.90;;;;;;5070074;28;20635;-61
2021/07/29 02:10:33;;;;;;;3.55;2.90;;;16.80;99.90;;;;;;5070318;28;20225;-61
2021/07/29 02:13:02;;;;;;;4.33;3.20;;;16.80;99.90;;;;;;5070323;28;20614;-59
2021/07/29 02:15:29;;;;;;;3.37;2.67;;;16.70;99.90;;;;;;5070026;28;20701;-60
2021/07/29 02:17:56;;;;;;;5.37;2.93;;;16.70;99.90;;;;;;5070575;28;20213;-62
2021/07/29 02:20:23;;;;;;;4.93;3.10;;;16.60;99.90;;;;;;5070294;28;20291;-59
2021/07/29 02:22:51;;;;;;;4.07;2.83;;;16.60;99.90;;;;;;5072434;28;20227;-61
2021/07/29 02:25:18;;;;;;;5.47;3.03;;;16.60;99.90;;;;;;5073412;28;20232;-62
2021/07/29 02:27:45;;;;;;;6.20;3.30;;;16.60;99.90;;;;;;5073336;28;20255;-60
2021/07/29 02:30:14;;;;;;;6.68;3.10;;;16.60;99.90;;;;;;5073682;28;20286;-61
2021/07/29 02:32:41;;;;;;;3.72;3.33;;;16.60;99.90;;;;;;5073509;28;20205;-61
2021/07/29 02:35:08;;;;;;;3.83;2.93;;;16.60;99.90;;;;;;5073340;28;20626;-61
2021/07/29 02:37:35;;;;;;;3.78;2.90;;;16.60;99.90;;;;;;5073499;28;20909;-59
2021/07/29 02:40:02;;;;;;;2.93;2.63;;;16.60;99.90;;;;;;5073264;28;20204;-59
2021/07/29 02:42:28;;;;;;;3.40;3.00;;;16.50;99.90;;;;;;5073216;28;20204;-60
2021/07/29 02:44:55;;;;;;;5.53;2.67;;;16.60;99.90;;;;;;5073165;28;20220;-60
2021/07/29 02:47:23;;;;;;;4.60;2.87;;;16.50;99.90;;;;;;5073282;28;20229;-62
2021/07/29 02:49:50;;;;;;;3.37;3.07;;;16.50;99.90;;;;;;5073034;28;20205;-62
2021/07/29 02:52:16;;;;;;;6.50;3.30;;;16.50;99.90;;;;;;5073066;28;20229;-60
2021/07/29 02:54:44;;;;;;;4.60;3.33;;;16.50;99.90;;;;;;5072890;28;20282;-60
2021/07/29 02:57:11;;;;;;;6.70;3.20;;;16.50;99.90;;;;;;5073272;28;20236;-60
2021/07/29 02:59:38;;;;;;;4.67;3.43;;;16.50;99.90;;;;;;5072960;28;20209;-59
2021/07/29 03:02:05;;;;;;;3.40;2.67;;;16.40;99.90;;;;;;5072748;28;20289;-60
2021/07/29 03:04:33;;;;;;;3.13;2.80;;;16.40;99.90;;;;;;5072923;28;20262;-60
2021/07/29 03:06:59;;;;;;;6.03;3.10;;;16.40;99.90;;;;;;5072827;28;20551;-60
2021/07/29 03:09:26;;;;;;;3.50;2.90;;;16.40;99.90;;;;;;5072547;28;20247;-60
2021/07/29 03:11:53;;;;;;;3.00;2.70;;;16.30;99.90;;;;;;5072412;28;20701;-60
2021/07/29 03:14:19;;;;;;;3.47;3.00;;;16.20;99.90;;;;;;5072500;28;20263;-60
2021/07/29 03:16:46;;;;;;;3.33;2.60;;;16.10;99.90;;;;;;5072549;28;20229;-60
2021/07/29 03:19:13;;;;;;;6.17;3.37;;;16.10;99.90;;;;;;5072793;28;20209;-60
2021/07/29 03:21:41;;;;;;;3.00;2.70;;;16.00;99.90;;;;;;5073112;28;20204;-60
2021/07/29 03:24:07;;;;;;;7.17;3.07;;;16.00;99.90;;;;;;5072306;28;20201;-60
2021/07/29 03:26:34;;;;;;;4.27;3.37;;;16.10;99.90;;;;;;5072689;28;20224;-60
2021/07/29 03:29:01;;;;;;;7.00;3.50;;;16.00;99.90;;;;;;5072435;28;20633;-60
2021/07/29 03:31:28;;;;;;;3.47;2.83;;;16.00;99.90;;;;;;5072248;28;20723;-59
2021/07/29 03:33:54;;;;;;;3.80;3.03;;;16.00;99.90;;;;;;5072464;28;20209;-59
2021/07/29 03:36:21;;;;;;;3.70;3.00;;;15.90;99.90;;;;;;5096246;22;20651;-59
2021/07/29 03:38:49;;;;;;;5.10;3.13;;;15.80;99.90;;;;;;5071940;28;20664;-59
2021/07/29 03:41:16;;;;;;;3.50;3.10;;;15.90;99.90;;;;;;5072246;28;20213;-59
2021/07/29 03:43:42;;;;;;;3.77;3.07;;;15.90;99.90;;;;;;5071863;28;20205;-59
2021/07/29 03:46:10;;;;;;;5.73;3.57;;;15.90;99.90;;;;;;5071845;28;20228;-59
2021/07/29 03:48:36;;;;;;;4.40;3.13;;;16.00;99.90;;;;;;5071735;28;20204;-59
2021/07/29 03:51:03;;;;;;;4.67;3.00;;;16.00;99.90;;;;;;5071663;28;20304;-59
2021/07/29 03:53:30;;;;;;;4.80;3.20;;;15.90;99.90;;;;;;5071953;28;20209;-59
2021/07/29 03:55:58;;;;;;;3.57;3.17;;;16.00;99.90;;;;;;5071447;28;20228;-59
2021/07/29 03:58:24;;;;;;;6.07;3.23;;;16.00;99.90;;;;;;5071550;28;20201;-59
2021/07/29 04:00:51;;;;;;;4.57;3.90;;;16.00;99.90;;;;;;5071578;28;20201;-59
2021/07/29 04:03:18;;;;;;;4.97;4.33;;;15.90;99.90;;;;;;5071513;28;20327;-59
2021/07/29 04:05:44;;;;;;;5.90;3.50;;;16.00;99.90;;;;;;5071066;28;20204;-59
2021/07/29 04:08:11;;;;;;;4.73;3.50;;;16.00;99.90;;;;;;5071395;28;20224;-59
2021/07/29 04:10:38;;;;;;;4.37;3.27;;;16.00;99.90;;;;;;5071308;28;20259;-59
2021/07/29 04:13:06;;;;;;;9.00;3.60;;;16.10;99.90;;;;;;5071447;28;20209;-59
2021/07/29 04:15:32;;;;;;;4.00;3.20;;;16.00;99.90;;;;;;5071185;28;20270;-59
2021/07/29 04:17:59;;;;;;;5.43;3.83;;;16.10;99.90;;;;;;5071105;28;20687;-59
2021/07/29 04:20:26;;;;;;;5.43;3.80;;;16.10;99.90;;;;;;5071130;28;20630;-59
2021/07/29 04:22:52;;;;;;;5.03;4.10;;;16.20;99.90;;;;;;5071351;28;20205;-59
2021/07/29 04:25:19;;;;;;;5.37;3.70;;;16.30;99.90;;;;;;5070749;28;20545;-59
2021/07/29 04:27:46;;;;;;;5.73;4.00;;;16.30;99.90;;;;;;5070676;28;20578;-59
2021/07/29 04:30:15;;;;;;;6.23;3.70;;;16.40;99.90;;;;;;5071211;28;20208;-59
2021/07/29 04:32:42;;;;;;;7.00;4.40;;;16.50;99.90;;;;;;5071168;28;20221;-59
2021/07/29 04:35:09;;;;;;;7.53;4.57;;;16.60;99.90;;;;;;5070899;28;20216;-58
2021/07/29 04:37:36;;;;;;;5.93;5.07;;;16.70;99.90;;;;;;5070865;28;20662;-60
2021/07/29 04:40:04;;;;;;;7.73;3.83;;;16.80;99.90;;;;;;5071257;28;20200;-59
2021/07/29 04:42:30;;;;;;;6.23;4.63;;;16.90;99.90;;;;;;5071227;28;20262;-59
2021/07/29 04:44:57;;;;;;;7.20;3.77;;;17.20;99.90;;;;;;5070383;28;20622;-59
2021/07/29 04:47:25;;;;;;;4.47;3.83;;;17.30;99.90;;;;;;5070927;28;20221;-59
2021/07/29 04:49:52;;;;;;;4.45;3.38;;;17.50;99.90;;;;;;5071641;28;20205;-59
2021/07/29 04:52:19;;;;;;;8.88;4.43;;;17.70;99.90;;;;;;5071275;28;20228;-59
2021/07/29 04:54:45;;;;;;;8.13;5.93;;;17.90;99.90;;;;;;5071176;28;20673;-60
2021/07/29 04:57:12;;;;;;;7.07;5.85;;;18.00;99.90;;;;;;5071149;28;20743;-58
2021/07/29 04:59:40;;;;;;;4.00;3.60;;;18.10;99.90;;;;;;5070649;28;20201;-59
2021/07/29 05:02:07;;;;;;;4.60;3.75;;;18.20;99.90;;;;;;5070686;28;20229;-59
2021/07/29 05:04:36;;;;;;;5.20;3.38;;;18.30;99.90;;;;;;5071001;28;20201;-59
2021/07/29 05:07:03;;;;;;;4.43;3.42;;;18.40;99.90;;;;;;5070725;28;20282;-59
2021/07/29 05:09:29;;;;;;;4.93;3.20;;;18.60;99.90;;;;;;5070722;28;20212;-60
2021/07/29 05:11:56;;;;;;;4.55;3.83;;;18.70;99.90;;;;;;5070583;28;20584;-59
2021/07/29 05:14:23;;;;;;;5.53;3.58;;;19.00;99.90;;;;;;5070192;28;20665;-59
2021/07/29 05:16:49;;;;;;;4.45;3.03;;;19.20;99.90;;;;;;5070490;28;20221;-59
2021/07/29 05:19:16;;;;;;;6.47;3.85;;;19.30;99.90;;;;;;5070876;28;20201;-59
2021/07/29 05:21:44;;;;;;;6.53;4.88;;;19.50;99.90;;;;;;5070738;28;20205;-59
2021/07/29 05:24:11;;;;;;;7.78;6.07;;;19.50;99.90;;;;;;5070510;28;20240;-59
2021/07/29 05:26:37;;;;;;;4.55;3.45;;;19.70;99.90;;;;;;5070703;28;20228;-59
2021/07/29 05:29:04;;;;;;;4.60;3.33;;;19.80;99.90;;;;;;5070863;28;20208;-59
2021/07/29 05:31:31;;;;;;;3.70;3.03;;;20.00;99.90;;;;;;5070705;28;20225;-59
2021/07/29 05:33:59;;;;;;;4.43;3.00;;;20.40;99.90;;;;;;5070599;28;20212;-59
2021/07/29 05:36:25;;;;;;;4.90;2.90;;;20.80;99.90;;;;;;5070220;28;20720;-59
2021/07/29 05:38:53;;;;;;;4.30;3.17;;;21.30;99.90;;;;;;5070418;28;20209;-59
2021/07/29 05:41:20;;;;;;;5.07;3.20;;;21.50;99.90;;;;;;5070393;28;20204;-59
2021/07/29 05:43:47;;;;;;;4.65;3.08;;;21.60;99.90;;;;;;5070537;28;20205;-59
2021/07/29 05:46:14;;;;;;;6.43;3.47;;;21.70;99.90;;;;;;5070762;28;20228;-58
2021/07/29 05:48:41;;;;;;;6.13;3.58;;;21.90;99.90;;;;;;5070494;28;20228;-59
2021/07/29 05:51:08;;;;;;;5.72;5.13;;;22.10;99.90;;;;;;5070685;28;20209;-58
2021/07/29 05:53:35;;;;;;;6.85;4.18;;;22.20;99.90;;;;;;5070471;28;20201;-59
2021/07/29 05:56:03;;;;;;;4.15;2.67;;;22.40;99.90;;;;;;5070714;28;20232;-58
2021/07/29 05:58:30;;;;;;;2.97;2.67;;;22.60;99.90;;;;;;5074114;28;20207;-59
2021/07/29 06:00:57;;;;;;;3.47;2.30;;;22.70;99.90;;;;;;5074585;28;20638;-59
2021/07/29 06:03:24;;;;;;;5.40;2.67;;;23.00;99.90;;;;;;5073975;28;20201;-59
2021/07/29 06:05:51;;;;;;;4.07;2.42;;;24.00;99.90;;;;;;5073978;28;20205;-58
2021/07/29 06:08:18;;;;;;;11.88;2.60;;;24.50;99.90;;;;;;5073703;28;20241;-59
2021/07/29 06:10:45;;;;;;;4.90;2.65;;;24.50;99.90;;;;;;5073479;28;20216;-58
2021/07/29 06:13:13;;;;;;;10.35;3.05;;;24.50;99.90;;;;;;5073869;28;20235;-58
2021/07/29 06:15:39;;;;;;;3.13;2.50;;;24.60;99.90;;;;;;5074259;28;20201;-59
2021/07/29 06:18:10;;;;;;;5.95;3.63;;;24.70;99.90;;;;;;5073849;28;20220;-59
2021/07/29 06:20:36;;;;;;;9.82;3.30;;;24.80;99.90;;;;;;5073964;28;20669;-58
2021/07/29 06:23:03;;;;;;;2.95;2.42;;;24.90;99.90;;;;;;5073578;28;20227;-58
2021/07/29 06:25:30;;;;;;;3.88;2.67;;;24.90;99.90;;;;;;5073236;28;20213;-59
2021/07/29 06:27:56;;;;;;;12.48;8.50;;;25.00;99.90;;;;;;5073351;28;20221;-58
2021/07/29 06:30:25;;;;;;;4.30;2.55;;;25.30;99.90;;;;;;5073727;28;20205;-58
2021/07/29 06:32:51;;;;;;;5.82;2.28;;;25.70;99.90;;;;;;5073439;28;20731;-59
2021/07/29 06:35:18;;;;;;;4.47;2.40;;;26.40;99.90;;;;;;5073139;28;20299;-58
2021/07/29 06:37:45;;;;;;;4.25;1.90;;;27.60;99.90;;;;;;5072758;28;20236;-59
2021/07/29 06:40:12;;;;;;;2.70;2.10;;;29.60;99.90;;;;;;5073549;28;20216;-59
2021/07/29 06:42:39;;;;;;;2.28;2.00;;;30.70;98.80;;;;;;5073258;28;20278;-59
2021/07/29 06:45:06;;;;;;;2.78;1.73;;;31.10;95.70;;;;;;5073385;28;20605;-59
2021/07/29 06:47:34;;;;;;;3.60;2.28;;;31.60;93.30;;;;;;5073154;28;20228;-59
2021/07/29 06:50:01;;;;;;;6.55;2.83;;;32.30;91.60;;;;;;5073098;28;20257;-58
2021/07/29 06:52:27;;;;;;;3.22;2.45;;;33.00;89.20;;;;;;5072924;28;20229;-58
2021/07/29 06:54:54;;;;;;;2.80;1.92;;;33.00;86.10;;;;;;5072749;28;20212;-59
2021/07/29 06:57:21;;;;;;;5.68;1.92;;;32.70;85.20;;;;;;5073020;28;20626;-57
2021/07/29 06:59:47;;;;;;;2.17;1.92;;;32.10;85.80;;;;;;5073205;28;20209;-57
2021/07/29 07:02:14;;;;;;;5.13;2.13;;;31.60;86.30;;;;;;5073042;28;20262;-57
2021/07/29 07:04:42;;;;;;;4.93;2.28;;;31.30;88.30;;;;;;5072829;28;20209;-57
2021/07/29 07:07:14;;;;;;;3.45;2.20;;;31.10;88.40;;;;;;5072562;28;20726;-58
2021/07/29 07:09:41;;;;;;;5.15;3.65;;;31.50;88.00;;;;;;5072713;28;20296;-57
2021/07/29 07:12:08;;;;;;;5.43;2.60;;;32.80;82.70;;;;;;5073050;28;20274;-57
2021/07/29 07:14:35;;;;;;;5.32;2.67;;;34.50;77.20;;;;;;5072453;28;20209;-58
2021/07/29 07:17:03;;;;;;;3.20;2.20;;;36.20;71.30;;;;;;5073213;28;20274;-57
2021/07/29 07:19:30;;;;;;;4.47;2.35;;;37.80;63.90;;;;;;5072224;28;20213;-58
2021/07/29 07:21:58;;;;;;;3.97;2.30;;;38.80;59.20;;;;;;5062910;28;20665;-64
2021/07/29 07:24:25;;;;;;;2.95;1.92;;;38.70;57.80;;;;;;5053253;28;20209;-58
2021/07/29 07:26:51;;;;;;;3.65;2.00;;;39.40;56.30;;;;;;5052996;28;20232;-58
2021/07/29 07:29:18;;;;;;;4.10;1.90;;;40.60;52.50;;;;;;5052611;28;20279;-64
2021/07/29 07:31:45;;;;;;;2.55;1.90;;;41.60;49.90;;;;;;5052282;28;20205;-62
2021/07/29 07:34:11;;;;;;;3.30;2.10;;;42.40;46.50;;;;;;5052381;28;20205;-62
2021/07/29 07:36:38;;;;;;;2.85;1.95;;;43.10;44.40;;;;;;5052527;28;20241;-57
2021/07/29 07:39:07;;;;;;;3.22;1.95;;;43.20;42.90;;;;;;5052569;28;20791;-57
2021/07/29 07:41:34;;;;;;;3.63;1.98;;;43.30;42.20;;;;;;5052569;28;20287;-57
2021/07/29 07:44:01;;;;;;;3.08;1.67;;;43.50;41.70;;;;;;5052104;28;20628;-58
2021/07/29 07:46:27;;;;;;;2.75;1.90;;;43.60;41.30;;;;;;5052116;28;20233;-58
2021/07/29 07:48:54;;;;;;;3.10;1.65;;;43.80;40.20;;;;;;5052347;28;20213;-58
2021/07/29 07:51:21;;;;;;;6.40;2.00;;;44.00;39.60;;;;;;5052250;28;20205;-57
2021/07/29 07:53:47;;;;;;;3.38;2.00;;;43.50;39.40;;;;;;5051836;28;20719;-58
2021/07/29 07:56:15;;;;;;;4.05;1.80;;;43.10;39.70;;;;;;5052345;28;20228;-58
2021/07/29 07:58:42;;;;;;;3.92;2.15;;;43.10;40.20;;;;;;5051963;28;20239;-59
2021/07/29 08:01:09;;;;;;;6.15;2.10;;;43.20;41.00;;;;;;5052338;28;20692;-57
2021/07/29 08:03:35;;;;;;;5.88;2.38;;;42.90;40.00;;;;;;5051873;28;20212;-57
2021/07/29 08:06:03;;;;;;;3.75;2.00;;;42.40;39.50;;;;;;5051898;28;20229;-58
2021/07/29 08:08:30;;;;;;;2.88;1.70;;;41.10;41.30;;;;;;5052191;28;20205;-58
2021/07/29 08:10:56;;;;;;;5.97;2.47;;;39.40;43.20;;;;;;5051862;28;20258;-58
2021/07/29 08:13:24;;;;;;;3.97;2.25;;;37.30;48.90;;;;;;5051370;28;20272;-61
2021/07/29 08:15:51;;;;;;;5.43;2.20;;;35.10;53.00;;;;;;5051430;28;20296;-57
2021/07/29 08:18:18;;;;;;;4.93;2.45;;;33.00;57.10;;;;;;5051658;28;20209;-59
2021/07/29 08:20:45;;;;;;;3.33;1.80;;;31.20;61.30;;;;;;5050942;28;20202;-57
2021/07/29 08:23:12;;;;;;;3.35;2.05;;;29.90;65.70;;;;;;5051401;28;20727;-56
2021/07/29 08:25:38;;;;;;;5.65;2.40;;;29.10;68.80;;;;;;5051278;28;20201;-56
2021/07/29 08:28:05;;;;;;;3.78;2.22;;;28.70;71.00;;;;;;5051342;28;20213;-56
2021/07/29 08:30:34;;;;;;;4.32;2.03;;;28.50;71.50;;;;;;5051393;28;20212;-58
2021/07/29 08:33:08;;;;;;;4.93;2.33;;;28.20;73.60;;;;;;5052172;28;20233;-58
2021/07/29 08:35:36;;;;;;;4.53;2.30;;;28.00;75.50;;;;;;5053940;28;20232;-57
2021/07/29 08:38:03;;;;;;;4.03;2.53;;;28.30;75.90;;;;;;5053337;28;20236;-57
2021/07/29 08:40:30;;;;;;;2.65;2.20;;;28.50;75.20;;;;;;5051317;28;20255;-57
2021/07/29 08:42:57;;;;;;;5.95;2.40;;;28.70;74.80;;;;;;5051054;28;20292;-57
2021/07/29 08:45:24;;;;;;;3.55;2.60;;;29.20;74.10;;;;;;5051390;28;20292;-56
2021/07/29 08:47:55;;;;;;;6.47;2.17;;;29.60;73.40;;;;;;5051549;28;20222;-57
2021/07/29 08:50:22;;;;;;;3.70;2.30;;;29.60;72.20;;;;;;5051329;28;20299;-56
2021/07/29 08:52:50;;;;;;;3.30;2.28;;;29.40;72.00;;;;;;5051047;28;20233;-56
2021/07/29 08:55:17;;;;;;;5.80;2.15;;;29.10;72.70;;;;;;5050601;28;20212;-58
2021/07/29 08:57:44;;;;;;;3.60;2.30;;;28.80;74.20;;;;;;5050962;28;20587;-57
2021/07/29 09:00:13;;;;;;;4.45;2.40;;;28.60;74.40;;;;;;5051022;28;20213;-59
2021/07/29 09:02:39;;;;;;;4.68;2.33;;;28.50;74.40;;;;;;5050756;28;20259;-57
2021/07/29 09:05:15;;;;;;;5.07;2.47;;;28.50;71.30;;;;;;5050586;28;20233;-56
2021/07/29 09:07:43;;;;;;;6.68;2.50;;;28.60;72.80;;;;;;5050564;28;20608;-58
2021/07/29 09:10:24;;;;;;;3.78;2.50;;;28.80;75.50;;;;;;5051023;28;20206;-56
2021/07/29 09:13:12;;;;;;;3.72;2.47;;;28.70;75.90;;;;;;5050753;28;20236;-56
2021/07/29 09:15:40;;;;;;;3.88;2.60;;;28.40;76.90;;;;;;5050604;28;20257;-56
2021/07/29 09:18:07;;;;;;;14.00;12.55;;;28.10;78.10;;;;;;5050651;28;20218;-57
2021/07/29 09:20:36;;;;;;;5.20;2.60;;;27.90;78.70;;;;;;5050199;28;20209;-56
2021/07/29 09:23:18;;;;;;;2.92;2.10;;;27.70;79.80;;;;;;5050413;28;20564;-56
2021/07/29 09:25:46;;;;;;;4.43;2.30;;;27.60;80.30;;;;;;5050292;28;20220;-56
2021/07/29 09:28:31;;;;;;;3.28;2.50;;;27.70;78.30;;;;;;5050512;28;20225;-56
2021/07/29 09:30:58;;;;;;;3.15;2.20;;;27.90;77.20;;;;;;5051840;28;20221;-57
2021/07/29 09:33:25;;;;;;;3.38;2.40;;;27.90;77.50;;;;;;5054641;28;20236;-57
2021/07/29 09:35:55;;;;;;;3.95;2.42;;;28.00;78.00;;;;;;5054872;28;20212;-59
2021/07/29 09:38:24;;;;;;;3.55;2.40;;;28.00;78.00;;;;;;5055011;28;20208;-60
2021/07/29 09:40:53;;;;;;;4.20;2.60;;;28.00;77.70;;;;;;5054452;28;20209;-59
2021/07/29 09:43:22;;;;;;;3.42;2.45;;;28.20;77.00;;;;;;5054324;28;20239;-60
2021/07/29 09:45:50;;;;;;;2.97;2.22;;;28.50;76.80;;;;;;5054499;28;20822;-64
2021/07/29 09:48:18;;;;;;;3.60;2.33;;;28.90;74.70;;;;;;5054333;28;20830;-62
2021/07/29 09:50:46;;;;;;;5.75;2.45;;;29.10;75.00;;;;;;5054073;28;20206;-65
2021/07/29 09:53:14;;;;;;;3.42;2.47;;;29.00;74.60;;;;;;5054298;28;20221;-59
2021/07/29 09:55:41;;;;;;;6.50;2.40;;;29.00;73.40;;;;;;5053943;28;20220;-59
2021/07/29 09:58:08;;;;;;;3.08;2.40;;;29.00;71.70;;;;;;5054198;28;20217;-58
2021/07/29 10:00:36;;;;;;;3.95;2.60;;;29.00;70.30;;;;;;5054492;28;20202;-58
2021/07/29 10:03:05;;;;;;;3.70;2.50;;;28.90;70.60;;;;;;5054106;28;20267;-57
2021/07/29 10:05:40;;;;;;;4.22;2.35;;;28.90;70.20;;;;;;5054376;28;20297;-57
2021/07/29 10:08:12;;;;;;;6.07;2.45;;;29.00;68.90;;;;;;5054408;28;20232;-57
2021/07/29 10:10:40;;;;;;;3.47;2.67;;;29.10;70.20;;;;;;5055088;28;20212;-63
2021/07/29 10:13:07;;;;;;;2.45;2.13;;;29.00;69.50;;;;;;5054735;28;20217;-65
2021/07/29 10:15:41;;;;;;;5.70;2.83;;;28.90;70.90;;;;;;5054141;28;20205;-58
2021/07/29 10:18:09;;;;;;;5.15;2.55;;;28.80;69.40;;;;;;5054235;28;20205;-58
2021/07/29 10:20:37;;;;;;;5.25;2.72;;;28.60;69.70;;;;;;5053909;28;20205;-59
2021/07/29 10:23:28;;;;;;;4.68;2.85;;;28.30;70.60;;;;;;5053746;28;20205;-57
2021/07/29 10:26:10;;;;;;;5.72;2.60;;;28.10;71.10;;;;;;5054088;28;20229;-57
2021/07/29 10:28:41;;;;;;;2.70;2.35;;;28.00;71.00;;;;;;5053492;28;20209;-57
2021/07/29 10:31:13;;;;;;;3.72;3.10;;;27.90;71.70;;;;;;5053424;28;20201;-57
2021/07/29 10:33:40;;;;;;;3.08;2.78;;;27.90;70.70;;;;;;5053840;28;20233;-57
2021/07/29 10:36:27;;;;;;;4.68;2.70;;;27.80;70.00;;;;;;5053100;28;20245;-57
2021/07/29 10:38:54;;;;;;;6.10;2.85;;;27.60;68.90;;;;;;5053087;28;20210;-57
2021/07/29 10:41:41;;;;;;;4.22;2.70;;;27.50;70.40;;;;;;5053398;28;20217;-58
2021/07/29 10:44:10;;;;;;;5.40;2.70;;;27.60;69.70;;;;;;5052581;28;20206;-58
2021/07/29 10:47:02;;;;;;;4.57;2.63;;;27.90;70.10;;;;;;5053768;28;20237;-62
2021/07/29 10:50:07;;;;;;;3.33;2.63;;;28.10;68.10;;;;;;5053256;28;20233;-58
2021/07/29 10:52:34;;;;;;;4.03;2.42;;;27.90;68.20;;;;;;5053194;28;20731;-58
2021/07/29 10:55:02;;;;;;;2.95;2.38;;;27.90;69.60;;;;;;5053359;28;20697;-59
2021/07/29 10:57:30;;;;;;;2.95;2.63;;;28.10;69.00;;;;;;5053132;28;20259;-59
2021/07/29 11:00:00;;;;;;;4.28;2.97;;;28.30;67.20;;;;;;5053146;28;20239;-59
2021/07/29 11:02:38;;;;;;;3.83;2.70;;;28.40;67.00;;;;;;5052829;28;20614;-59
2021/07/29 11:05:08;;;;;;;4.50;2.92;;;28.30;66.70;;;;;;5053000;28;20205;-59
2021/07/29 11:07:35;;;;;;;3.88;2.60;;;28.30;67.00;;;;;;5052724;28;20284;-59
2021/07/29 11:10:05;;;;;;;4.68;2.80;;;28.50;67.40;;;;;;5052928;28;20263;-58
2021/07/29 11:12:35;;;;;;;3.30;2.55;;;28.70;66.20;;;;;;5052635;28;20277;-59
2021/07/29 11:15:03;;;;;;;3.05;2.70;;;28.90;65.60;;;;;;5052155;28;20232;-59
2021/07/29 11:17:30;;;;;;;4.63;3.00;;;29.30;64.90;;;;;;5052824;28;20229;-59
2021/07/29 11:19:57;;;;;;;3.95;3.00;;;29.50;63.10;;;;;;5052734;28;20216;-59
2021/07/29 11:22:24;;;;;;;5.15;2.95;;;29.90;63.70;;;;;;5052650;28;20232;-57
2021/07/29 11:24:50;;;;;;;4.65;3.25;;;29.70;64.00;;;;;;5052755;28;20252;-58
2021/07/29 11:27:29;;;;;;;4.05;2.72;;;29.30;63.80;;;;;;5052290;28;20237;-58
2021/07/29 11:29:59;;;;;;;4.55;2.72;;;29.40;64.40;;;;;;5052499;28;20263;-59
2021/07/29 11:32:33;;;;;;;3.38;2.72;;;29.20;65.00;;;;;;5051421;28;20315;-60
2021/07/29 11:35:00;;;;;;;4.32;3.15;;;29.30;63.90;;;;;;5052261;28;20229;-62
2021/07/29 11:37:33;;;;;;;4.25;2.80;;;29.30;64.10;;;;;;5052244;28;20237;-61
2021/07/29 11:40:00;;;;;;;3.50;2.95;;;29.30;64.50;;;;;;5052173;28;20292;-62
2021/07/29 11:42:33;;;;;;;5.13;2.92;;;29.20;63.60;;;;;;5052407;28;20205;-62
2021/07/29 11:45:01;;;;;;;3.88;3.10;;;29.20;64.00;;;;;;5052393;28;20225;-62
2021/07/29 11:47:37;;;;;;;4.63;3.15;;;29.30;64.00;;;;;;5052671;28;20445;-60
2021/07/29 11:50:05;;;;;;;6.20;2.88;;;29.50;63.10;;;;;;5052519;28;20206;-62
2021/07/29 11:52:31;;;;;;;3.67;2.90;;;29.50;63.10;;;;;;5052217;28;20659;-62
2021/07/29 11:55:11;;;;;;;5.22;3.00;;;29.30;63.50;;;;;;5052011;28;20268;-62
2021/07/29 11:57:39;;;;;;;3.80;2.90;;;29.30;63.90;;;;;;5051596;28;20283;-60
2021/07/29 12:00:13;;;;;;;6.15;2.85;;;29.40;64.40;;;;;;5051905;28;20649;-61
2021/07/29 12:02:39;;;;;;;5.68;2.80;;;29.60;65.20;;;;;;5052050;28;20255;-61
2021/07/29 12:05:08;;;;;;;3.85;2.88;;;29.90;63.10;;;;;;5051685;28;20206;-60
2021/07/29 12:07:36;;;;;;;5.07;3.00;;;29.80;62.40;;;;;;5051669;28;20233;-61
2021/07/29 12:10:03;;;;;;;5.43;3.08;;;29.20;63.30;;;;;;5051714;28;20209;-60
2021/07/29 12:12:31;;;;;;;4.35;2.70;;;29.00;64.50;;;;;;5051650;28;20301;-60
2021/07/29 12:14:57;;;;;;;4.50;2.85;;;28.90;64.40;;;;;;5051420;28;20229;-60
2021/07/29 12:17:25;;;;;;;4.85;2.90;;;29.00;64.70;;;;;;5051562;28;20254;-63
2021/07/29 12:20:02;;;;;;;3.72;2.80;;;29.00;64.20;;;;;;5051447;28;20205;-65
2021/07/29 12:22:30;;;;;;;3.30;2.78;;;28.90;64.70;;;;;;5051667;28;20215;-61
2021/07/29 12:24:59;;;;;;;3.50;2.90;;;28.90;64.40;;;;;;5051359;28;20251;-64
2021/07/29 12:27:27;;;;;;;4.60;3.15;;;28.60;65.40;;;;;;5050897;28;20276;-60
2021/07/29 12:29:53;;;;;;;6.65;2.97;;;28.40;65.80;;;;;;5050870;28;20213;-60
2021/07/29 12:32:22;;;;;;;4.85;2.80;;;28.20;66.80;;;;;;5051381;28;20209;-60
2021/07/29 12:34:51;;;;;;;4.60;3.75;;;28.10;67.50;;;;;;5051174;28;20236;-60
2021/07/29 12:37:34;;;;;;;4.82;2.90;;;28.10;67.60;;;;;;5050865;28;20238;-60
2021/07/29 12:40:01;;;;;;;4.45;2.80;;;28.20;66.40;;;;;;5051437;28;20212;-60
2021/07/29 12:42:30;;;;;;;3.65;3.10;;;28.20;67.50;;;;;;5050696;28;20584;-59
2021/07/29 12:44:58;;;;;;;4.72;2.78;;;28.00;68.00;;;;;;5050766;28;20296;-60
2021/07/29 12:47:25;;;;;;;3.08;2.78;;;27.80;68.20;;;;;;5050924;28;20227;-60
2021/07/29 12:49:54;;;;;;;4.88;3.05;;;27.80;68.30;;;;;;5050884;28;20205;-60